Time;durP1;ratioP1;P1;durP2;ratioP2;P2;SDS_P1;SDS_P2;PMS_P1;PMS_P2;Temp;Humidity;BMP_temperature;BMP_pressure;BME280_temperature;BME280_humidity;BME280_pressure;Samples;Min_cycle;Max_cycle;Signal;HPM_P1;HPM_P2
2021/08/11 00:02:03;;;;;;;2.42;1.12;;;21.40;66.80;;;;;;2332499;54;20935;-66
2021/08/11 00:04:30;;;;;;;3.37;1.10;;;21.40;66.90;;;;;;2329144;54;21554;-65
2021/08/11 00:06:56;;;;;;;3.80;1.15;;;21.30;66.90;;;;;;2478482;52;21734;-67
2021/08/11 00:09:23;;;;;;;2.55;1.20;;;21.30;67.00;;;;;;2431844;52;21957;-65
2021/08/11 00:11:49;;;;;;;3.35;1.27;;;21.30;67.00;;;;;;2329435;54;20948;-68
2021/08/11 00:14:16;;;;;;;2.50;1.35;;;21.30;67.00;;;;;;2329370;54;20940;-64
2021/08/11 00:16:42;;;;;;;3.22;1.30;;;21.30;67.00;;;;;;2332677;54;21514;-67
2021/08/11 00:19:09;;;;;;;3.50;1.35;;;21.20;67.00;;;;;;2332223;54;21935;-65
2021/08/11 00:21:35;;;;;;;2.90;1.30;;;21.20;67.10;;;;;;2328712;54;20912;-66
2021/08/11 00:24:02;;;;;;;2.15;1.15;;;21.20;67.10;;;;;;2329140;54;20936;-66
2021/08/11 00:26:32;;;;;;;2.40;1.15;;;21.10;67.10;;;;;;2332588;54;20931;-67
2021/08/11 00:28:59;;;;;;;2.97;1.27;;;21.10;67.20;;;;;;2363547;53;20944;-66
2021/08/11 00:31:25;;;;;;;2.58;1.23;;;21.10;67.20;;;;;;2333576;54;21005;-65
2021/08/11 00:33:51;;;;;;;2.97;1.23;;;21.10;67.30;;;;;;2328549;54;21004;-65
2021/08/11 00:36:18;;;;;;;4.30;1.15;;;21.00;67.20;;;;;;2329665;54;21091;-65
2021/08/11 00:38:44;;;;;;;2.72;1.30;;;21.00;67.20;;;;;;2333395;53;20959;-65
2021/08/11 00:41:11;;;;;;;2.55;1.30;;;21.00;67.20;;;;;;2329185;54;21055;-65
2021/08/11 00:43:38;;;;;;;3.25;1.58;;;20.90;67.20;;;;;;2326392;54;21076;-66
2021/08/11 00:46:08;;;;;;;2.50;1.30;;;20.90;67.30;;;;;;2328224;54;20965;-65
2021/08/11 00:48:35;;;;;;;3.87;1.30;;;20.90;67.30;;;;;;2310238;55;20961;-65
2021/08/11 00:51:02;;;;;;;2.70;1.30;;;20.80;67.30;;;;;;2329815;54;22151;-65
2021/08/11 00:53:28;;;;;;;3.10;1.37;;;20.80;67.30;;;;;;2386018;53;21012;-68
2021/08/11 00:55:56;;;;;;;3.30;1.50;;;20.80;67.40;;;;;;2329168;53;21001;-65
2021/08/11 00:58:22;;;;;;;2.87;1.40;;;20.70;67.40;;;;;;2333023;54;21529;-66
2021/08/11 01:00:49;;;;;;;2.92;1.42;;;20.70;67.50;;;;;;2573593;52;21119;-66
2021/08/11 01:03:18;;;;;;;3.67;1.48;;;20.70;67.60;;;;;;2573027;52;20938;-65
2021/08/11 01:05:45;;;;;;;3.20;1.30;;;20.60;67.60;;;;;;2332089;53;21007;-65
2021/08/11 01:08:12;;;;;;;2.72;1.40;;;20.70;67.80;;;;;;2573393;52;20981;-66
2021/08/11 01:10:39;;;;;;;3.05;1.50;;;20.60;67.70;;;;;;2332419;54;21046;-65
2021/08/11 01:13:06;;;;;;;3.70;1.48;;;20.60;67.90;;;;;;2562727;52;20953;-67
2021/08/11 01:15:32;;;;;;;2.80;1.30;;;20.60;68.00;;;;;;2407812;52;21060;-65
2021/08/11 01:18:03;;;;;;;4.05;1.50;;;20.60;68.10;;;;;;2487697;52;22147;-65
2021/08/11 01:20:30;;;;;;;2.97;1.20;;;20.60;68.20;;;;;;2329957;54;21012;-66
2021/08/11 01:22:58;;;;;;;3.15;1.37;;;20.60;68.20;;;;;;2344550;53;21963;-65
2021/08/11 01:25:44;;;;;;;2.28;1.17;;;20.60;68.30;;;;;;2333000;53;20931;-68
2021/08/11 01:30:21;;;;;;;3.20;1.17;;;20.60;68.00;;;;;;2455676;53;21371;-65
2021/08/11 01:33:21;;;;;;;2.37;1.08;;;20.60;67.80;;;;;;2329493;54;20925;-65
2021/08/11 01:36:00;;;;;;;2.53;0.98;;;20.60;67.80;;;;;;2332049;54;20939;-65
2021/08/11 01:38:27;;;;;;;2.30;1.00;;;20.60;68.10;;;;;;2328983;54;20965;-65
2021/08/11 01:40:56;;;;;;;3.05;1.23;;;20.50;68.00;;;;;;2329553;54;20933;-65
2021/08/11 01:43:24;;;;;;;2.50;1.10;;;20.50;68.00;;;;;;2331426;54;22065;-67
2021/08/11 01:45:50;;;;;;;4.05;1.25;;;20.50;68.10;;;;;;2328430;54;21015;-65
2021/08/11 01:48:21;;;;;;;3.78;1.25;;;20.40;68.10;;;;;;2331793;54;21026;-66
2021/08/11 01:50:48;;;;;;;2.28;1.17;;;20.40;68.10;;;;;;2331899;54;21008;-68
2021/08/11 01:53:17;;;;;;;3.53;1.60;;;20.40;68.20;;;;;;2342150;52;20950;-67
2021/08/11 01:55:46;;;;;;;4.20;1.42;;;20.40;68.10;;;;;;2324525;54;21431;-68
2021/08/11 01:58:12;;;;;;;2.80;1.40;;;20.30;68.00;;;;;;2329609;54;21256;-65
2021/08/11 02:00:38;;;;;;;2.60;1.20;;;20.30;68.10;;;;;;2309464;55;21039;-67
2021/08/11 02:03:05;;;;;;;3.65;1.45;;;20.30;68.30;;;;;;2352796;52;20939;-67
2021/08/11 02:05:31;;;;;;;2.92;1.00;;;20.30;68.40;;;;;;2328222;54;21060;-66
2021/08/11 02:07:59;;;;;;;2.20;1.20;;;20.30;68.50;;;;;;2332926;53;20920;-65
2021/08/11 02:10:26;;;;;;;2.12;1.12;;;20.30;68.60;;;;;;2328359;54;21468;-65
2021/08/11 02:12:53;;;;;;;3.37;1.45;;;20.30;68.60;;;;;;2329273;54;21292;-65
2021/08/11 02:15:19;;;;;;;2.30;1.08;;;20.20;69.30;;;;;;2334649;54;21684;-65
2021/08/11 02:17:46;;;;;;;3.65;1.33;;;20.20;68.60;;;;;;2323198;54;20976;-66
2021/08/11 02:20:12;;;;;;;3.15;1.10;;;20.20;68.60;;;;;;2316271;54;20958;-67
2021/08/11 02:22:38;;;;;;;2.95;1.45;;;20.20;68.60;;;;;;2322385;54;20980;-67
2021/08/11 02:25:09;;;;;;;2.80;1.42;;;20.20;68.70;;;;;;2331340;54;20935;-68
2021/08/11 02:29:16;;;;;;;2.75;1.20;;;20.20;68.70;;;;;;2313514;54;21003;-64
2021/08/11 02:31:48;;;;;;;2.12;0.90;;;20.20;68.40;;;;;;2331735;54;21853;-68
2021/08/11 02:34:40;;;;;;;1.80;1.00;;;20.20;68.90;;;;;;2335522;54;20996;-66
2021/08/11 02:37:09;;;;;;;2.53;0.90;;;20.20;68.70;;;;;;2319074;53;20958;-67
2021/08/11 02:39:43;;;;;;;4.30;1.20;;;20.20;69.00;;;;;;2317935;53;21390;-65
2021/08/11 02:42:10;;;;;;;2.50;1.10;;;20.10;68.80;;;;;;2330616;54;20938;-65
2021/08/11 02:44:39;;;;;;;2.40;1.20;;;20.10;68.80;;;;;;2331756;53;21022;-65
2021/08/11 02:47:05;;;;;;;2.60;1.12;;;20.10;68.80;;;;;;2327906;54;21993;-64
2021/08/11 02:49:32;;;;;;;3.03;1.23;;;20.10;68.80;;;;;;2335888;54;20946;-66
2021/08/11 02:51:59;;;;;;;3.08;1.23;;;20.10;68.80;;;;;;2322316;53;21064;-64
2021/08/11 02:54:25;;;;;;;2.30;1.10;;;20.10;68.90;;;;;;2316267;54;21017;-65
2021/08/11 02:56:52;;;;;;;2.70;1.10;;;20.00;69.00;;;;;;2310139;54;20990;-67
2021/08/11 02:59:18;;;;;;;3.10;1.37;;;20.00;69.00;;;;;;2328537;54;20948;-65
2021/08/11 03:01:45;;;;;;;2.80;1.30;;;20.00;69.10;;;;;;2574063;52;20986;-68
2021/08/11 03:04:12;;;;;;;3.25;1.12;;;20.00;69.10;;;;;;2329092;54;21637;-67
2021/08/11 03:06:38;;;;;;;3.47;1.48;;;20.00;69.20;;;;;;2331206;54;21021;-65
2021/08/11 03:09:04;;;;;;;2.17;1.17;;;20.00;69.20;;;;;;2328828;54;21807;-66
2021/08/11 03:11:32;;;;;;;2.50;1.25;;;20.00;69.20;;;;;;2328319;54;20980;-67
2021/08/11 03:13:58;;;;;;;2.47;1.10;;;20.00;69.20;;;;;;2329070;54;20949;-66
2021/08/11 03:16:24;;;;;;;2.30;1.20;;;20.00;69.20;;;;;;2332309;54;21006;-65
2021/08/11 03:18:51;;;;;;;2.67;1.25;;;20.00;69.20;;;;;;2390029;52;21384;-68
2021/08/11 03:21:18;;;;;;;2.15;1.05;;;19.90;69.00;;;;;;2331864;54;20946;-65
2021/08/11 03:23:44;;;;;;;3.08;1.50;;;20.00;69.10;;;;;;2329348;54;20933;-64
2021/08/11 03:26:10;;;;;;;2.22;1.10;;;19.90;69.10;;;;;;2328835;54;21967;-65
2021/08/11 03:28:37;;;;;;;2.90;1.20;;;20.00;69.30;;;;;;2574136;52;21024;-65
2021/08/11 03:31:03;;;;;;;3.05;1.17;;;20.00;69.30;;;;;;2468050;52;20941;-65
2021/08/11 03:33:30;;;;;;;2.80;1.20;;;19.90;69.20;;;;;;2331745;54;21121;-65
2021/08/11 03:35:56;;;;;;;2.53;1.23;;;19.90;69.30;;;;;;2328741;54;22048;-65
2021/08/11 03:38:23;;;;;;;3.40;1.42;;;19.90;69.40;;;;;;2328828;54;20949;-65
2021/08/11 03:40:49;;;;;;;4.18;1.42;;;19.90;69.40;;;;;;2573050;52;20944;-68
2021/08/11 03:43:15;;;;;;;2.80;1.35;;;19.90;69.40;;;;;;2395182;53;20929;-66
2021/08/11 03:45:42;;;;;;;3.03;1.50;;;19.90;69.40;;;;;;2333920;54;21106;-66
2021/08/11 03:48:08;;;;;;;3.08;1.42;;;19.90;69.40;;;;;;2329066;54;21020;-65
2021/08/11 03:50:35;;;;;;;3.33;1.60;;;19.90;69.40;;;;;;2573699;52;20933;-65
2021/08/11 03:53:02;;;;;;;3.00;1.40;;;19.90;69.30;;;;;;2331267;54;22108;-67
2021/08/11 03:55:31;;;;;;;3.53;1.58;;;19.90;69.20;;;;;;2313505;54;21975;-65
2021/08/11 03:57:59;;;;;;;3.28;1.58;;;19.90;69.20;;;;;;2328050;53;20948;-65
2021/08/11 04:00:25;;;;;;;3.95;1.30;;;19.80;69.10;;;;;;2331596;54;21081;-68
2021/08/11 04:02:52;;;;;;;3.03;1.35;;;19.80;69.20;;;;;;2320692;54;20989;-66
2021/08/11 04:05:19;;;;;;;2.92;1.52;;;19.80;69.20;;;;;;2573842;52;22065;-65
2021/08/11 04:07:45;;;;;;;3.62;1.35;;;19.70;69.10;;;;;;2336718;53;20954;-67
2021/08/11 04:10:12;;;;;;;2.60;1.33;;;19.70;69.20;;;;;;2308086;54;20976;-65
2021/08/11 04:12:38;;;;;;;3.10;1.25;;;19.70;69.40;;;;;;2330144;54;20945;-65
2021/08/11 04:15:05;;;;;;;3.12;1.45;;;19.70;69.40;;;;;;2328306;53;20961;-65
2021/08/11 04:17:31;;;;;;;3.10;1.25;;;19.70;69.50;;;;;;2332324;54;20976;-65
2021/08/11 04:19:59;;;;;;;2.03;1.10;;;19.70;69.50;;;;;;2335827;54;21149;-68
2021/08/11 04:22:26;;;;;;;2.92;1.37;;;19.70;69.50;;;;;;2321414;53;20974;-66
2021/08/11 04:24:52;;;;;;;3.00;1.23;;;19.70;69.60;;;;;;2575199;52;21078;-65
2021/08/11 04:27:18;;;;;;;2.40;1.20;;;19.70;69.60;;;;;;2321044;54;20992;-65
2021/08/11 04:29:47;;;;;;;2.75;1.27;;;19.70;69.60;;;;;;2331087;54;20991;-67
2021/08/11 04:32:14;;;;;;;3.12;1.40;;;19.60;69.40;;;;;;2346750;53;21037;-67
2021/08/11 04:34:40;;;;;;;2.25;1.23;;;19.70;69.60;;;;;;2524120;52;20925;-67
2021/08/11 04:37:06;;;;;;;2.62;1.20;;;19.70;69.60;;;;;;2332243;53;20934;-68
2021/08/11 04:39:33;;;;;;;4.28;1.70;;;19.70;69.70;;;;;;2329085;53;21072;-66
2021/08/11 04:45:27;;;;;;;2.58;1.20;;;19.70;69.80;;;;;;2468883;53;22138;-68
2021/08/11 04:47:54;;;;;;;3.55;1.40;;;19.70;70.00;;;;;;2328848;54;20933;-66
2021/08/11 04:50:20;;;;;;;2.95;1.40;;;19.70;70.10;;;;;;2328238;54;22163;-67
2021/08/11 04:52:47;;;;;;;3.25;1.58;;;19.70;70.20;;;;;;2331144;54;20943;-67
2021/08/11 04:55:14;;;;;;;3.72;1.50;;;19.70;70.30;;;;;;2484107;52;20924;-65
2021/08/11 04:57:41;;;;;;;3.30;1.30;;;19.70;70.40;;;;;;2390201;52;20963;-65
2021/08/11 05:00:08;;;;;;;2.97;1.55;;;19.70;70.40;;;;;;2573954;52;20957;-66
2021/08/11 05:02:34;;;;;;;3.08;1.73;;;19.80;70.60;;;;;;2328714;54;20962;-65
2021/08/11 05:05:01;;;;;;;3.12;1.70;;;19.80;70.60;;;;;;2326903;54;21049;-65
2021/08/11 05:07:28;;;;;;;3.65;1.50;;;19.80;70.50;;;;;;2330726;54;21012;-66
2021/08/11 05:09:54;;;;;;;3.60;1.50;;;19.80;70.40;;;;;;2329057;54;20980;-69
2021/08/11 05:12:21;;;;;;;3.65;1.70;;;19.80;70.50;;;;;;2336037;54;20962;-65
2021/08/11 05:14:47;;;;;;;3.40;1.80;;;19.80;70.40;;;;;;2558312;52;21040;-66
2021/08/11 05:17:14;;;;;;;3.08;1.80;;;19.80;70.50;;;;;;2359489;53;20990;-65
2021/08/11 05:19:40;;;;;;;4.15;1.75;;;19.80;71.30;;;;;;2352637;53;20976;-65
2021/08/11 05:22:06;;;;;;;3.35;1.62;;;19.90;70.70;;;;;;2330442;54;20933;-65
2021/08/11 05:24:33;;;;;;;2.67;1.40;;;19.80;70.70;;;;;;2372332;52;21055;-68
2021/08/11 05:26:59;;;;;;;2.62;1.42;;;19.90;70.90;;;;;;2330607;54;20948;-68
2021/08/11 05:29:25;;;;;;;4.32;1.80;;;19.90;71.00;;;;;;2337972;53;20943;-68
2021/08/11 05:31:52;;;;;;;3.72;2.00;;;19.90;71.20;;;;;;2319875;54;20917;-67
2021/08/11 05:34:18;;;;;;;2.80;1.40;;;20.00;71.30;;;;;;2350842;53;20915;-68
2021/08/11 05:36:45;;;;;;;4.18;1.92;;;20.00;71.40;;;;;;2330606;54;20952;-66
2021/08/11 05:39:11;;;;;;;3.47;1.85;;;20.10;71.60;;;;;;2395041;52;20947;-66
2021/08/11 05:41:37;;;;;;;3.42;1.70;;;20.10;71.60;;;;;;2307374;53;20956;-66
2021/08/11 05:44:07;;;;;;;3.72;1.90;;;20.10;72.40;;;;;;2423704;52;20966;-66
2021/08/11 05:46:34;;;;;;;3.30;1.65;;;20.20;71.80;;;;;;2307677;54;20965;-66
2021/08/11 05:49:01;;;;;;;2.40;1.20;;;20.20;71.80;;;;;;2309771;54;20957;-67
2021/08/11 05:51:30;;;;;;;2.95;1.52;;;20.30;71.90;;;;;;2351205;53;20936;-65
2021/08/11 05:53:56;;;;;;;3.45;1.67;;;20.30;71.90;;;;;;2322904;54;21861;-65
2021/08/11 05:56:24;;;;;;;3.12;1.50;;;20.40;72.00;;;;;;2331384;54;20940;-68
2021/08/11 05:58:50;;;;;;;2.72;1.50;;;20.50;72.10;;;;;;2502106;52;20938;-66
2021/08/11 06:01:20;;;;;;;3.45;1.70;;;20.50;72.00;;;;;;2330095;53;21039;-65
2021/08/11 06:03:46;;;;;;;2.65;1.33;;;20.50;72.00;;;;;;2407927;53;20956;-65
2021/08/11 06:06:14;;;;;;;3.17;1.70;;;20.60;72.20;;;;;;2329634;54;21040;-65
2021/08/11 06:08:40;;;;;;;2.92;1.45;;;20.60;72.20;;;;;;2335513;53;20968;-67
2021/08/11 06:11:07;;;;;;;3.78;1.95;;;20.70;72.30;;;;;;2330375;53;20912;-69
2021/08/11 06:13:33;;;;;;;4.07;2.03;;;20.80;72.40;;;;;;2330944;53;21963;-66
2021/08/11 06:16:00;;;;;;;3.42;1.73;;;20.80;72.40;;;;;;2330760;54;21001;-66
2021/08/11 06:18:26;;;;;;;3.25;1.73;;;20.90;72.50;;;;;;2447684;52;21036;-68
2021/08/11 06:20:52;;;;;;;5.12;1.73;;;21.00;72.50;;;;;;2335079;54;20987;-68
2021/08/11 06:23:19;;;;;;;4.57;2.15;;;21.00;72.40;;;;;;2469569;52;22146;-66
2021/08/11 06:25:49;;;;;;;3.83;1.80;;;21.10;72.60;;;;;;2330671;54;21009;-68
2021/08/11 06:28:18;;;;;;;3.60;1.70;;;21.20;72.70;;;;;;2343844;53;21956;-66
2021/08/11 06:30:45;;;;;;;3.72;1.52;;;21.30;72.60;;;;;;2333763;54;20997;-68
2021/08/11 06:33:11;;;;;;;4.15;2.00;;;21.30;72.60;;;;;;2386023;52;21465;-68
2021/08/11 06:35:37;;;;;;;4.70;1.85;;;21.40;72.60;;;;;;2330607;53;20944;-68
2021/08/11 06:38:04;;;;;;;3.92;1.73;;;21.50;72.70;;;;;;2394805;52;21014;-69
2021/08/11 06:40:34;;;;;;;4.62;2.10;;;21.60;72.80;;;;;;2398171;52;20972;-66
2021/08/11 06:43:00;;;;;;;3.70;1.95;;;21.60;72.80;;;;;;2490947;52;20963;-70
2021/08/11 06:45:27;;;;;;;3.58;1.87;;;21.70;72.80;;;;;;2330310;54;20993;-65
2021/08/11 06:47:53;;;;;;;3.58;1.95;;;21.80;72.90;;;;;;2330257;54;20967;-67
2021/08/11 06:50:20;;;;;;;3.28;1.73;;;21.90;72.90;;;;;;2330606;54;20985;-66
2021/08/11 06:52:46;;;;;;;3.30;1.77;;;22.00;73.00;;;;;;2330117;54;20925;-66
2021/08/11 06:55:14;;;;;;;4.20;2.03;;;22.00;73.00;;;;;;2330231;54;20972;-66
2021/08/11 06:57:40;;;;;;;2.95;1.80;;;22.10;73.00;;;;;;2330340;54;20964;-69
2021/08/11 07:00:07;;;;;;;4.37;2.17;;;22.20;72.90;;;;;;2330451;54;20976;-68
2021/08/11 07:02:34;;;;;;;3.42;1.70;;;22.30;73.00;;;;;;2330049;54;20921;-65
2021/08/11 07:05:00;;;;;;;3.17;1.50;;;22.40;73.10;;;;;;2330577;54;21346;-66
2021/08/11 07:07:27;;;;;;;3.55;1.95;;;22.50;73.10;;;;;;2329436;54;21012;-66
2021/08/11 07:09:57;;;;;;;3.17;1.58;;;22.60;73.10;;;;;;2330684;54;20937;-65
2021/08/11 07:12:24;;;;;;;3.50;2.33;;;22.70;72.80;;;;;;2333262;53;21493;-66
2021/08/11 07:14:50;;;;;;;2.90;1.70;;;22.70;72.70;;;;;;2333226;53;22139;-66
2021/08/11 07:17:16;;;;;;;5.45;1.92;;;22.80;72.80;;;;;;2329574;53;21043;-68
2021/08/11 07:19:42;;;;;;;3.35;1.87;;;23.00;72.80;;;;;;2330344;54;20937;-66
2021/08/11 07:22:10;;;;;;;3.58;2.00;;;23.10;72.90;;;;;;2310471;54;22001;-66
2021/08/11 07:24:36;;;;;;;4.32;1.90;;;23.10;72.90;;;;;;2330450;54;20928;-66
2021/08/11 07:27:04;;;;;;;4.68;2.33;;;23.20;73.00;;;;;;2333112;54;20943;-66
2021/08/11 07:29:30;;;;;;;3.72;2.05;;;23.30;73.10;;;;;;2337111;54;21037;-67
2021/08/11 07:31:57;;;;;;;2.87;1.75;;;23.50;73.20;;;;;;2413005;52;20942;-69
2021/08/11 07:34:23;;;;;;;3.37;2.00;;;23.50;73.20;;;;;;2329795;54;20996;-68
2021/08/11 07:36:49;;;;;;;3.75;2.08;;;23.60;73.00;;;;;;2333783;54;21471;-69
2021/08/11 07:39:16;;;;;;;4.00;2.08;;;23.70;73.00;;;;;;2327249;54;21390;-66
2021/08/11 07:41:42;;;;;;;6.32;2.10;;;23.90;73.30;;;;;;2465096;52;20952;-66
2021/08/11 07:44:08;;;;;;;3.50;1.92;;;24.00;73.60;;;;;;2329851;54;20984;-67
2021/08/11 07:46:35;;;;;;;4.32;2.30;;;24.10;73.80;;;;;;2329788;54;20972;-67
2021/08/11 07:49:01;;;;;;;3.85;2.05;;;24.30;73.90;;;;;;2407312;52;21601;-66
2021/08/11 07:51:28;;;;;;;3.65;1.77;;;24.40;73.50;;;;;;2314585;53;20940;-69
2021/08/11 07:53:54;;;;;;;2.95;1.90;;;24.50;73.10;;;;;;2328752;54;20956;-70
2021/08/11 07:56:21;;;;;;;3.72;2.15;;;24.60;72.90;;;;;;2332803;54;20942;-66
2021/08/11 07:58:49;;;;;;;3.22;2.03;;;24.70;72.60;;;;;;2327868;53;21028;-67
2021/08/11 08:01:15;;;;;;;3.75;2.08;;;24.90;72.60;;;;;;2329853;54;21074;-67
2021/08/11 08:03:44;;;;;;;5.95;2.20;;;25.00;72.50;;;;;;2322135;54;21033;-67
2021/08/11 08:06:11;;;;;;;4.50;2.15;;;25.00;71.40;;;;;;2382073;52;21956;-68
2021/08/11 08:08:38;;;;;;;4.20;2.40;;;25.10;71.40;;;;;;2330012;54;21012;-67
2021/08/11 08:11:04;;;;;;;4.03;1.98;;;25.10;71.20;;;;;;2329724;53;21482;-68
2021/08/11 08:13:31;;;;;;;5.72;2.50;;;25.20;71.10;;;;;;2333502;54;21113;-68
2021/08/11 08:15:57;;;;;;;3.40;2.03;;;25.20;70.90;;;;;;2334002;53;20998;-68
2021/08/11 08:18:24;;;;;;;4.35;1.87;;;25.20;70.90;;;;;;2329002;54;21200;-67
2021/08/11 08:20:51;;;;;;;3.75;2.00;;;25.30;70.80;;;;;;2333435;54;20974;-67
2021/08/11 08:23:17;;;;;;;4.35;2.30;;;25.40;70.90;;;;;;2330627;54;20941;-67
2021/08/11 08:25:43;;;;;;;3.83;2.17;;;25.40;70.70;;;;;;2351688;53;21555;-68
2021/08/11 08:28:10;;;;;;;4.37;1.77;;;25.50;70.60;;;;;;2329379;54;21083;-69
2021/08/11 08:30:42;;;;;;;5.32;2.40;;;25.50;70.30;;;;;;2335496;52;20991;-66
2021/08/11 08:33:09;;;;;;;5.15;2.40;;;25.50;70.20;;;;;;2328928;54;22104;-67
2021/08/11 08:35:35;;;;;;;3.30;1.95;;;25.60;70.20;;;;;;2334008;54;20969;-68
2021/08/11 08:38:03;;;;;;;4.40;2.17;;;25.70;70.10;;;;;;2332859;54;20959;-70
2021/08/11 08:40:31;;;;;;;3.25;1.87;;;25.70;70.10;;;;;;2329590;53;20980;-68
2021/08/11 08:42:57;;;;;;;4.22;2.30;;;25.70;70.10;;;;;;2328805;54;21012;-69
2021/08/11 08:45:24;;;;;;;3.67;2.00;;;25.80;70.20;;;;;;2499249;52;21008;-67
2021/08/11 08:47:50;;;;;;;5.12;2.08;;;25.90;70.20;;;;;;2374527;53;20989;-68
2021/08/11 08:50:19;;;;;;;3.25;2.08;;;25.90;70.00;;;;;;2329994;54;21053;-68
2021/08/11 08:52:45;;;;;;;3.60;2.08;;;26.00;69.80;;;;;;2336877;54;20949;-70
2021/08/11 08:55:12;;;;;;;3.67;1.98;;;26.00;69.50;;;;;;2323831;54;21155;-67
2021/08/11 08:57:38;;;;;;;3.80;2.08;;;26.10;69.60;;;;;;2460556;52;21402;-68
2021/08/11 09:00:07;;;;;;;5.20;2.20;;;26.20;69.60;;;;;;2333346;54;21211;-68
2021/08/11 09:02:40;;;;;;;4.43;2.60;;;26.20;69.30;;;;;;2404865;52;22061;-69
2021/08/11 09:05:08;;;;;;;3.42;2.10;;;26.30;69.00;;;;;;2391036;52;20956;-67
2021/08/11 09:07:34;;;;;;;4.18;1.90;;;26.30;69.40;;;;;;2330046;54;20984;-68
2021/08/11 09:10:19;;;;;;;4.18;2.30;;;26.40;69.60;;;;;;2330999;54;20980;-67
2021/08/11 09:13:05;;;;;;;4.90;2.50;;;26.50;68.30;;;;;;2328803;54;22106;-69
2021/08/11 09:15:40;;;;;;;3.35;2.17;;;26.70;69.20;;;;;;2329348;54;21028;-68
2021/08/11 09:18:26;;;;;;;4.93;2.10;;;26.70;68.50;;;;;;2328547;54;21930;-66
2021/08/11 09:21:25;;;;;;;4.35;2.55;;;26.80;67.90;;;;;;2316976;55;20970;-68
2021/08/11 09:23:53;;;;;;;4.07;2.45;;;26.90;67.40;;;;;;2324347;53;20983;-67
2021/08/11 09:26:20;;;;;;;3.97;2.10;;;26.90;69.20;;;;;;2331627;54;21034;-70
2021/08/11 09:28:46;;;;;;;4.90;2.58;;;27.00;69.30;;;;;;2333252;54;20995;-68
2021/08/11 09:31:20;;;;;;;3.67;2.20;;;27.10;69.30;;;;;;2324896;54;20993;-68
2021/08/11 09:33:51;;;;;;;3.55;2.03;;;27.20;68.70;;;;;;2543856;52;21126;-69
2021/08/11 09:36:17;;;;;;;3.97;2.30;;;27.40;69.00;;;;;;2328428;54;21012;-68
2021/08/11 09:38:54;;;;;;;5.05;2.35;;;27.40;68.60;;;;;;2329239;54;20960;-68
2021/08/11 09:41:20;;;;;;;4.05;1.95;;;27.50;67.30;;;;;;2332293;54;20970;-67
2021/08/11 09:43:47;;;;;;;4.45;2.35;;;27.60;68.20;;;;;;2334375;53;20984;-69
2021/08/11 09:46:16;;;;;;;3.65;2.08;;;27.70;67.80;;;;;;2331674;54;21081;-70
2021/08/11 09:48:43;;;;;;;3.83;2.33;;;27.70;67.60;;;;;;2328794;54;21222;-69
2021/08/11 09:51:10;;;;;;;3.30;1.92;;;27.80;67.40;;;;;;2328863;54;21099;-68
2021/08/11 09:53:38;;;;;;;5.10;2.62;;;27.80;67.40;;;;;;2328428;54;21052;-69
2021/08/11 09:56:09;;;;;;;4.37;2.50;;;27.90;67.20;;;;;;2366446;53;22057;-70
2021/08/11 09:58:39;;;;;;;4.35;2.53;;;27.90;67.20;;;;;;2416407;52;21436;-69
2021/08/11 10:01:27;;;;;;;4.82;2.62;;;28.00;66.60;;;;;;2337113;54;21057;-67
2021/08/11 10:04:06;;;;;;;5.32;2.42;;;28.00;67.00;;;;;;2315640;54;21933;-67
2021/08/11 10:06:42;;;;;;;3.47;2.37;;;28.10;66.30;;;;;;2296738;54;21087;-67
2021/08/11 10:09:16;;;;;;;4.15;2.22;;;28.20;66.50;;;;;;2330137;54;20941;-68
2021/08/11 10:11:47;;;;;;;4.87;2.45;;;28.30;66.60;;;;;;2330984;53;21143;-68
2021/08/11 10:14:15;;;;;;;3.85;2.40;;;28.30;66.90;;;;;;2326007;54;20944;-67
2021/08/11 10:16:42;;;;;;;4.00;2.30;;;28.40;66.70;;;;;;2327042;53;20955;-69
2021/08/11 10:19:10;;;;;;;4.57;2.00;;;28.50;66.60;;;;;;2330600;54;20954;-69
2021/08/11 10:22:21;;;;;;;4.35;2.60;;;28.50;66.20;;;;;;2332336;53;21259;-69
2021/08/11 10:24:51;;;;;;;4.07;2.28;;;28.60;66.00;;;;;;2436891;52;22034;-69
2021/08/11 10:27:18;;;;;;;5.20;2.37;;;28.60;65.20;;;;;;2397630;52;20967;-66
2021/08/11 10:29:47;;;;;;;4.57;2.35;;;28.70;65.40;;;;;;2327185;54;20933;-68
2021/08/11 10:32:14;;;;;;;4.65;2.50;;;28.70;65.00;;;;;;2333661;53;20972;-68
2021/08/11 10:34:41;;;;;;;4.00;2.55;;;28.70;64.90;;;;;;2325872;54;20953;-69
2021/08/11 10:37:07;;;;;;;3.10;1.90;;;28.80;64.90;;;;;;2324782;54;20949;-68
2021/08/11 10:39:34;;;;;;;7.47;2.25;;;28.80;64.90;;;;;;2324914;54;20925;-67
2021/08/11 10:42:11;;;;;;;4.25;2.65;;;28.80;64.90;;;;;;2305248;55;20989;-68
2021/08/11 10:44:37;;;;;;;4.55;2.30;;;28.90;62.70;;;;;;2324792;54;20937;-68
2021/08/11 10:47:04;;;;;;;4.55;2.35;;;29.00;63.80;;;;;;2330124;53;22063;-69
2021/08/11 10:49:32;;;;;;;4.75;2.60;;;29.00;63.60;;;;;;2323753;54;20941;-68
2021/08/11 10:52:31;;;;;;;3.53;2.22;;;29.10;63.70;;;;;;2357395;53;21985;-68
2021/08/11 10:55:04;;;;;;;3.45;1.95;;;29.10;61.80;;;;;;2386727;53;20942;-68
2021/08/11 10:57:49;;;;;;;4.35;2.28;;;29.20;63.10;;;;;;2320390;54;21026;-69
2021/08/11 11:00:48;;;;;;;3.80;2.00;;;29.30;62.00;;;;;;2317675;53;20952;-68
2021/08/11 11:03:47;;;;;;;5.22;2.60;;;29.30;61.80;;;;;;2315990;54;21053;-67
2021/08/11 11:06:13;;;;;;;3.25;1.92;;;29.40;61.60;;;;;;2323994;54;20941;-70
2021/08/11 11:08:40;;;;;;;3.72;1.98;;;29.40;63.50;;;;;;2324439;54;22182;-69
2021/08/11 11:11:32;;;;;;;4.45;2.10;;;29.40;63.20;;;;;;2324828;54;22108;-67
2021/08/11 11:13:59;;;;;;;3.08;1.77;;;29.50;62.10;;;;;;2569255;52;20959;-70
2021/08/11 11:17:05;;;;;;;4.28;2.15;;;29.50;63.20;;;;;;2324667;54;22068;-67
2021/08/11 11:19:32;;;;;;;3.60;2.20;;;29.60;61.40;;;;;;2324629;54;21337;-69
2021/08/11 11:21:58;;;;;;;3.30;1.95;;;29.70;62.80;;;;;;2327073;54;21085;-68
2021/08/11 11:24:50;;;;;;;3.95;2.25;;;29.70;62.60;;;;;;2324813;54;21074;-65
2021/08/11 11:28:34;;;;;;;3.50;2.10;;;29.80;60.80;;;;;;2309123;54;21041;-65
2021/08/11 11:31:26;;;;;;;4.15;2.10;;;29.80;60.80;;;;;;2347602;52;21109;-66
2021/08/11 11:33:53;;;;;;;4.80;2.10;;;29.90;62.60;;;;;;2327535;54;21984;-66
2021/08/11 11:36:20;;;;;;;4.68;2.20;;;29.90;62.60;;;;;;2324424;54;20976;-65
2021/08/11 11:39:09;;;;;;;3.60;1.80;;;30.00;62.20;;;;;;2324327;54;20945;-66
2021/08/11 11:41:35;;;;;;;3.00;1.87;;;30.00;60.30;;;;;;2324434;54;21067;-67
2021/08/11 11:44:42;;;;;;;4.10;1.83;;;30.00;62.00;;;;;;2324340;54;20996;-65
2021/08/11 11:48:02;;;;;;;3.92;2.15;;;30.10;59.80;;;;;;2324701;54;20968;-67
2021/08/11 11:50:32;;;;;;;3.12;1.52;;;30.10;60.00;;;;;;2328271;54;21409;-66
2021/08/11 11:53:03;;;;;;;3.20;1.85;;;30.20;61.80;;;;;;2444887;52;21972;-69
2021/08/11 11:55:40;;;;;;;3.95;2.20;;;30.30;61.20;;;;;;2325554;54;20952;-66
2021/08/11 11:58:14;;;;;;;3.67;2.20;;;30.30;60.80;;;;;;2327275;54;21065;-65
2021/08/11 12:00:45;;;;;;;3.70;2.00;;;30.30;60.30;;;;;;2315815;53;20961;-71
2021/08/11 12:03:12;;;;;;;3.42;1.92;;;30.30;60.60;;;;;;2302739;55;20949;-65
2021/08/11 12:05:46;;;;;;;3.67;1.95;;;30.40;61.40;;;;;;2327846;54;21508;-66
2021/08/11 12:08:14;;;;;;;3.35;1.87;;;30.50;61.10;;;;;;2307032;55;22308;-65
2021/08/11 12:10:40;;;;;;;2.65;1.62;;;30.50;61.90;;;;;;2329305;54;20991;-66
2021/08/11 12:13:07;;;;;;;3.30;1.85;;;30.50;61.80;;;;;;2333987;54;20931;-67
2021/08/11 12:15:39;;;;;;;3.60;2.00;;;30.60;61.70;;;;;;2325920;53;21020;-66
2021/08/11 12:18:23;;;;;;;3.37;1.83;;;30.70;61.20;;;;;;2327784;54;21086;-67
2021/08/11 12:20:51;;;;;;;3.83;1.90;;;30.80;59.50;;;;;;2549421;52;21815;-66
2021/08/11 12:23:26;;;;;;;3.30;1.60;;;30.80;60.80;;;;;;2317199;54;20974;-66
2021/08/11 12:25:53;;;;;;;3.30;1.85;;;30.90;59.70;;;;;;2324018;54;21059;-67
2021/08/11 12:28:21;;;;;;;3.60;2.22;;;30.90;60.80;;;;;;2327889;54;20994;-66
2021/08/11 12:30:58;;;;;;;3.15;2.03;;;31.00;60.70;;;;;;2316403;54;21076;-66
2021/08/11 12:33:27;;;;;;;3.25;1.98;;;31.00;59.50;;;;;;2351971;54;20946;-66
2021/08/11 12:35:53;;;;;;;3.65;2.12;;;31.00;59.60;;;;;;2510885;52;21314;-66
2021/08/11 12:38:38;;;;;;;3.75;1.98;;;31.00;59.50;;;;;;2323522;54;21050;-69
2021/08/11 12:41:21;;;;;;;3.42;2.00;;;31.00;58.60;;;;;;2392140;53;21044;-65
2021/08/11 12:43:48;;;;;;;4.03;2.15;;;31.00;58.30;;;;;;2347738;53;20949;-66
2021/08/11 12:46:14;;;;;;;5.57;2.10;;;31.00;59.60;;;;;;2327627;54;22071;-65
2021/08/11 12:48:41;;;;;;;4.37;2.10;;;31.00;59.50;;;;;;2323539;54;20980;-67
2021/08/11 12:51:19;;;;;;;3.55;2.45;;;31.00;59.30;;;;;;2550484;52;21321;-68
2021/08/11 12:54:00;;;;;;;3.85;2.00;;;31.10;59.50;;;;;;2335987;53;22204;-69
2021/08/11 12:56:26;;;;;;;4.07;2.00;;;31.10;58.80;;;;;;2457734;52;21554;-66
2021/08/11 12:59:11;;;;;;;3.75;2.25;;;31.10;59.70;;;;;;2323817;54;20993;-67
2021/08/11 13:01:41;;;;;;;4.00;2.10;;;31.20;58.30;;;;;;2332695;53;21097;-65
2021/08/11 13:04:29;;;;;;;3.05;1.80;;;31.30;59.10;;;;;;2311504;53;21000;-66
2021/08/11 13:06:55;;;;;;;4.03;2.12;;;31.30;58.90;;;;;;2357102;53;20934;-70
2021/08/11 13:09:30;;;;;;;4.03;2.05;;;31.40;59.40;;;;;;2322412;54;20953;-65